sensor_id;sensor_type;location;lat;lon;timestamp;P1;durP1;ratioP1;P2;durP2;ratioP2
78322;SDS011;67583;50.616;-3.404;2023-03-21T00:00:13;16.02;;;3.50;;
78322;SDS011;67583;50.616;-3.404;2023-03-21T00:02:40;24.00;;;4.80;;
78322;SDS011;67583;50.616;-3.404;2023-03-21T00:05:05;18.35;;;5.13;;
78322;SDS011;67583;50.616;-3.404;2023-03-21T00:07:31;18.98;;;4.45;;
78322;SDS011;67583;50.616;-3.404;2023-03-21T00:09:56;23.90;;;4.60;;
78322;SDS011;67583;50.616;-3.404;2023-03-21T00:12:22;14.63;;;4.15;;
78322;SDS011;67583;50.616;-3.404;2023-03-21T00:14:47;15.55;;;4.28;;
78322;SDS011;67583;50.616;-3.404;2023-03-21T00:17:12;25.08;;;5.63;;
78322;SDS011;67583;50.616;-3.404;2023-03-21T00:19:39;17.92;;;4.20;;
78322;SDS011;67583;50.616;-3.404;2023-03-21T00:22:05;26.83;;;4.97;;
78322;SDS011;67583;50.616;-3.404;2023-03-21T00:24:32;23.80;;;5.07;;
78322;SDS011;67583;50.616;-3.404;2023-03-21T00:26:57;20.40;;;3.83;;
78322;SDS011;67583;50.616;-3.404;2023-03-21T00:29:23;20.52;;;4.97;;
78322;SDS011;67583;50.616;-3.404;2023-03-21T00:31:48;21.13;;;4.47;;
78322;SDS011;67583;50.616;-3.404;2023-03-21T00:34:14;27.42;;;4.18;;
78322;SDS011;67583;50.616;-3.404;2023-03-21T00:36:39;13.88;;;4.28;;
78322;SDS011;67583;50.616;-3.404;2023-03-21T00:39:05;19.40;;;4.53;;
78322;SDS011;67583;50.616;-3.404;2023-03-21T00:41:30;15.43;;;4.35;;
78322;SDS011;67583;50.616;-3.404;2023-03-21T00:43:56;15.93;;;4.05;;
78322;SDS011;67583;50.616;-3.404;2023-03-21T00:46:21;15.48;;;4.47;;
78322;SDS011;67583;50.616;-3.404;2023-03-21T00:48:47;18.08;;;4.65;;
78322;SDS011;67583;50.616;-3.404;2023-03-21T00:51:19;13.68;;;3.70;;
78322;SDS011;67583;50.616;-3.404;2023-03-21T00:53:50;13.52;;;5.03;;
78322;SDS011;67583;50.616;-3.404;2023-03-21T00:56:17;19.52;;;4.90;;
78322;SDS011;67583;50.616;-3.404;2023-03-21T00:58:42;19.52;;;5.13;;
78322;SDS011;67583;50.616;-3.404;2023-03-21T01:01:08;17.30;;;4.05;;
78322;SDS011;67583;50.616;-3.404;2023-03-21T01:03:33;15.85;;;4.80;;
78322;SDS011;67583;50.616;-3.404;2023-03-21T01:06:06;21.35;;;4.13;;
78322;SDS011;67583;50.616;-3.404;2023-03-21T01:08:38;21.70;;;4.40;;
78322;SDS011;67583;50.616;-3.404;2023-03-21T01:11:07;24.92;;;4.80;;
78322;SDS011;67583;50.616;-3.404;2023-03-21T01:13:35;24.67;;;4.40;;
78322;SDS011;67583;50.616;-3.404;2023-03-21T01:16:00;19.30;;;5.55;;
78322;SDS011;67583;50.616;-3.404;2023-03-21T01:18:28;30.08;;;7.20;;
78322;SDS011;67583;50.616;-3.404;2023-03-21T01:20:55;23.27;;;5.45;;
78322;SDS011;67583;50.616;-3.404;2023-03-21T01:23:21;19.27;;;5.68;;
78322;SDS011;67583;50.616;-3.404;2023-03-21T01:25:47;17.45;;;5.65;;
78322;SDS011;67583;50.616;-3.404;2023-03-21T01:28:13;15.45;;;4.60;;
78322;SDS011;67583;50.616;-3.404;2023-03-21T01:30:43;20.77;;;5.30;;
78322;SDS011;67583;50.616;-3.404;2023-03-21T01:33:12;20.40;;;4.57;;
78322;SDS011;67583;50.616;-3.404;2023-03-21T01:35:38;39.55;;;7.50;;
78322;SDS011;67583;50.616;-3.404;2023-03-21T01:38:03;23.17;;;6.35;;
78322;SDS011;67583;50.616;-3.404;2023-03-21T01:40:28;24.05;;;4.95;;
78322;SDS011;67583;50.616;-3.404;2023-03-21T01:42:54;21.75;;;6.47;;
78322;SDS011;67583;50.616;-3.404;2023-03-21T01:48:23;22.95;;;5.40;;
78322;SDS011;67583;50.616;-3.404;2023-03-21T01:50:50;18.25;;;4.95;;
78322;SDS011;67583;50.616;-3.404;2023-03-21T01:53:15;17.25;;;5.05;;
78322;SDS011;67583;50.616;-3.404;2023-03-21T01:55:44;36.40;;;6.55;;
78322;SDS011;67583;50.616;-3.404;2023-03-21T01:58:11;16.33;;;6.40;;
78322;SDS011;67583;50.616;-3.404;2023-03-21T02:00:38;28.70;;;6.88;;
78322;SDS011;67583;50.616;-3.404;2023-03-21T02:03:06;30.02;;;5.70;;
78322;SDS011;67583;50.616;-3.404;2023-03-21T02:05:55;26.00;;;6.20;;
78322;SDS011;67583;50.616;-3.404;2023-03-21T02:08:30;29.92;;;5.93;;
78322;SDS011;67583;50.616;-3.404;2023-03-21T02:10:56;25.63;;;5.88;;
78322;SDS011;67583;50.616;-3.404;2023-03-21T02:13:21;21.90;;;6.45;;
78322;SDS011;67583;50.616;-3.404;2023-03-21T02:34:38;14.27;;;3.63;;
78322;SDS011;67583;50.616;-3.404;2023-03-21T02:40:02;13.23;;;3.53;;
78322;SDS011;67583;50.616;-3.404;2023-03-21T02:42:42;14.63;;;4.18;;
78322;SDS011;67583;50.616;-3.404;2023-03-21T02:45:17;14.90;;;3.13;;
78322;SDS011;67583;50.616;-3.404;2023-03-21T02:47:45;8.90;;;2.85;;
78322;SDS011;67583;50.616;-3.404;2023-03-21T02:52:42;9.55;;;4.13;;
78322;SDS011;67583;50.616;-3.404;2023-03-21T02:55:14;13.40;;;3.15;;
78322;SDS011;67583;50.616;-3.404;2023-03-21T02:57:43;6.80;;;2.83;;
78322;SDS011;67583;50.616;-3.404;2023-03-21T03:00:09;7.20;;;2.63;;
78322;SDS011;67583;50.616;-3.404;2023-03-21T03:02:37;15.32;;;3.35;;
78322;SDS011;67583;50.616;-3.404;2023-03-21T03:05:13;14.98;;;3.42;;
78322;SDS011;67583;50.616;-3.404;2023-03-21T03:08:41;15.40;;;4.45;;
78322;SDS011;67583;50.616;-3.404;2023-03-21T03:13:42;13.80;;;2.95;;
78322;SDS011;67583;50.616;-3.404;2023-03-21T03:19:01;10.68;;;4.00;;
78322;SDS011;67583;50.616;-3.404;2023-03-21T03:21:32;13.13;;;3.65;;
78322;SDS011;67583;50.616;-3.404;2023-03-21T03:24:11;13.30;;;3.05;;
78322;SDS011;67583;50.616;-3.404;2023-03-21T03:26:45;15.65;;;2.90;;
78322;SDS011;67583;50.616;-3.404;2023-03-21T03:29:17;14.13;;;3.85;;
78322;SDS011;67583;50.616;-3.404;2023-03-21T03:32:05;10.93;;;3.63;;
78322;SDS011;67583;50.616;-3.404;2023-03-21T03:34:32;11.25;;;3.10;;
78322;SDS011;67583;50.616;-3.404;2023-03-21T03:39:32;16.55;;;4.03;;
78322;SDS011;67583;50.616;-3.404;2023-03-21T03:42:05;11.75;;;2.70;;
78322;SDS011;67583;50.616;-3.404;2023-03-21T03:44:33;17.02;;;4.15;;
78322;SDS011;67583;50.616;-3.404;2023-03-21T03:47:07;13.93;;;4.07;;
78322;SDS011;67583;50.616;-3.404;2023-03-21T03:49:39;15.93;;;4.35;;
78322;SDS011;67583;50.616;-3.404;2023-03-21T03:52:12;17.75;;;3.83;;
78322;SDS011;67583;50.616;-3.404;2023-03-21T03:54:45;11.23;;;3.38;;
78322;SDS011;67583;50.616;-3.404;2023-03-21T03:57:12;15.52;;;2.97;;
78322;SDS011;67583;50.616;-3.404;2023-03-21T03:59:38;10.15;;;3.35;;
78322;SDS011;67583;50.616;-3.404;2023-03-21T04:02:05;17.25;;;5.07;;
78322;SDS011;67583;50.616;-3.404;2023-03-21T04:04:31;16.95;;;3.63;;
78322;SDS011;67583;50.616;-3.404;2023-03-21T04:06:56;12.02;;;3.05;;
78322;SDS011;67583;50.616;-3.404;2023-03-21T04:09:22;18.65;;;4.07;;
78322;SDS011;67583;50.616;-3.404;2023-03-21T04:11:49;14.80;;;3.13;;
78322;SDS011;67583;50.616;-3.404;2023-03-21T04:14:14;14.55;;;3.85;;
78322;SDS011;67583;50.616;-3.404;2023-03-21T04:16:39;16.42;;;3.80;;
78322;SDS011;67583;50.616;-3.404;2023-03-21T04:19:05;16.60;;;3.75;;
78322;SDS011;67583;50.616;-3.404;2023-03-21T04:21:30;11.98;;;3.47;;
78322;SDS011;67583;50.616;-3.404;2023-03-21T04:23:56;10.98;;;3.67;;
78322;SDS011;67583;50.616;-3.404;2023-03-21T04:26:21;14.30;;;3.42;;
78322;SDS011;67583;50.616;-3.404;2023-03-21T04:28:48;15.63;;;3.90;;
78322;SDS011;67583;50.616;-3.404;2023-03-21T04:31:14;13.98;;;3.20;;
78322;SDS011;67583;50.616;-3.404;2023-03-21T04:33:41;21.70;;;4.47;;
78322;SDS011;67583;50.616;-3.404;2023-03-21T04:36:07;26.60;;;4.45;;
78322;SDS011;67583;50.616;-3.404;2023-03-21T04:38:33;21.20;;;3.95;;
78322;SDS011;67583;50.616;-3.404;2023-03-21T04:41:00;18.30;;;5.20;;
78322;SDS011;67583;50.616;-3.404;2023-03-21T04:43:26;11.43;;;3.15;;
78322;SDS011;67583;50.616;-3.404;2023-03-21T04:45:52;24.70;;;3.70;;
78322;SDS011;67583;50.616;-3.404;2023-03-21T04:48:18;23.63;;;3.85;;
78322;SDS011;67583;50.616;-3.404;2023-03-21T04:50:45;23.40;;;4.65;;
78322;SDS011;67583;50.616;-3.404;2023-03-21T04:53:11;16.90;;;3.75;;
78322;SDS011;67583;50.616;-3.404;2023-03-21T04:55:36;17.35;;;4.40;;
78322;SDS011;67583;50.616;-3.404;2023-03-21T04:58:02;25.58;;;5.00;;
78322;SDS011;67583;50.616;-3.404;2023-03-21T05:00:28;18.98;;;3.83;;
78322;SDS011;67583;50.616;-3.404;2023-03-21T05:02:54;19.80;;;3.70;;
78322;SDS011;67583;50.616;-3.404;2023-03-21T05:05:21;30.63;;;4.65;;
78322;SDS011;67583;50.616;-3.404;2023-03-21T05:07:47;11.07;;;2.78;;
78322;SDS011;67583;50.616;-3.404;2023-03-21T05:10:12;19.00;;;3.65;;
78322;SDS011;67583;50.616;-3.404;2023-03-21T05:12:37;17.73;;;4.15;;
78322;SDS011;67583;50.616;-3.404;2023-03-21T05:15:03;16.58;;;3.85;;
78322;SDS011;67583;50.616;-3.404;2023-03-21T05:17:29;22.48;;;3.63;;
78322;SDS011;67583;50.616;-3.404;2023-03-21T05:19:55;17.20;;;5.82;;
78322;SDS011;67583;50.616;-3.404;2023-03-21T05:22:21;22.67;;;5.43;;
78322;SDS011;67583;50.616;-3.404;2023-03-21T05:24:48;22.20;;;4.60;;
78322;SDS011;67583;50.616;-3.404;2023-03-21T05:27:17;20.85;;;3.95;;
78322;SDS011;67583;50.616;-3.404;2023-03-21T05:30:13;12.50;;;2.47;;
78322;SDS011;67583;50.616;-3.404;2023-03-21T05:32:41;15.77;;;3.00;;
78322;SDS011;67583;50.616;-3.404;2023-03-21T05:35:06;16.27;;;3.67;;
78322;SDS011;67583;50.616;-3.404;2023-03-21T05:37:33;12.57;;;4.57;;
78322;SDS011;67583;50.616;-3.404;2023-03-21T05:39:58;10.15;;;2.67;;
78322;SDS011;67583;50.616;-3.404;2023-03-21T05:42:24;14.90;;;3.35;;
78322;SDS011;67583;50.616;-3.404;2023-03-21T05:44:49;14.45;;;3.80;;
78322;SDS011;67583;50.616;-3.404;2023-03-21T05:47:15;11.52;;;3.00;;
78322;SDS011;67583;50.616;-3.404;2023-03-21T05:49:42;10.75;;;2.33;;
78322;SDS011;67583;50.616;-3.404;2023-03-21T05:52:08;16.95;;;2.70;;
78322;SDS011;67583;50.616;-3.404;2023-03-21T05:54:33;12.18;;;2.22;;
78322;SDS011;67583;50.616;-3.404;2023-03-21T05:57:00;11.85;;;3.35;;
78322;SDS011;67583;50.616;-3.404;2023-03-21T05:59:25;8.10;;;2.30;;
78322;SDS011;67583;50.616;-3.404;2023-03-21T06:01:50;14.32;;;2.88;;
78322;SDS011;67583;50.616;-3.404;2023-03-21T06:04:16;11.60;;;2.67;;
78322;SDS011;67583;50.616;-3.404;2023-03-21T06:06:41;11.73;;;2.83;;
78322;SDS011;67583;50.616;-3.404;2023-03-21T06:09:07;12.68;;;2.30;;
78322;SDS011;67583;50.616;-3.404;2023-03-21T06:11:33;8.82;;;2.30;;
78322;SDS011;67583;50.616;-3.404;2023-03-21T06:14:00;10.93;;;2.70;;
78322;SDS011;67583;50.616;-3.404;2023-03-21T06:16:25;15.80;;;2.42;;
78322;SDS011;67583;50.616;-3.404;2023-03-21T06:18:52;16.00;;;3.03;;
78322;SDS011;67583;50.616;-3.404;2023-03-21T06:21:18;16.00;;;2.38;;
78322;SDS011;67583;50.616;-3.404;2023-03-21T06:23:44;16.40;;;3.10;;
78322;SDS011;67583;50.616;-3.404;2023-03-21T06:26:11;19.17;;;3.35;;
78322;SDS011;67583;50.616;-3.404;2023-03-21T06:28:36;16.02;;;2.92;;
78322;SDS011;67583;50.616;-3.404;2023-03-21T06:31:02;24.73;;;3.80;;
78322;SDS011;67583;50.616;-3.404;2023-03-21T06:33:27;20.08;;;3.55;;
78322;SDS011;67583;50.616;-3.404;2023-03-21T06:35:53;11.73;;;3.00;;
78322;SDS011;67583;50.616;-3.404;2023-03-21T06:38:19;15.50;;;3.17;;
78322;SDS011;67583;50.616;-3.404;2023-03-21T06:40:45;18.33;;;4.05;;
78322;SDS011;67583;50.616;-3.404;2023-03-21T06:43:11;22.50;;;3.28;;
78322;SDS011;67583;50.616;-3.404;2023-03-21T06:45:37;23.35;;;4.13;;
78322;SDS011;67583;50.616;-3.404;2023-03-21T06:48:02;16.33;;;3.30;;
78322;SDS011;67583;50.616;-3.404;2023-03-21T06:50:27;14.48;;;3.45;;
78322;SDS011;67583;50.616;-3.404;2023-03-21T06:52:53;13.60;;;2.35;;
78322;SDS011;67583;50.616;-3.404;2023-03-21T06:55:18;10.63;;;2.58;;
78322;SDS011;67583;50.616;-3.404;2023-03-21T06:57:50;11.35;;;2.17;;
78322;SDS011;67583;50.616;-3.404;2023-03-21T07:00:15;11.18;;;2.20;;
78322;SDS011;67583;50.616;-3.404;2023-03-21T07:02:42;9.25;;;2.65;;
78322;SDS011;67583;50.616;-3.404;2023-03-21T07:05:07;13.13;;;2.15;;
78322;SDS011;67583;50.616;-3.404;2023-03-21T07:07:33;9.18;;;2.33;;
78322;SDS011;67583;50.616;-3.404;2023-03-21T07:09:58;14.32;;;2.85;;
78322;SDS011;67583;50.616;-3.404;2023-03-21T07:12:24;18.58;;;2.42;;
78322;SDS011;67583;50.616;-3.404;2023-03-21T07:14:49;11.05;;;2.30;;
78322;SDS011;67583;50.616;-3.404;2023-03-21T07:17:15;14.70;;;3.30;;
78322;SDS011;67583;50.616;-3.404;2023-03-21T07:19:40;12.45;;;2.92;;
78322;SDS011;67583;50.616;-3.404;2023-03-21T07:22:05;13.63;;;2.88;;
78322;SDS011;67583;50.616;-3.404;2023-03-21T07:24:31;14.27;;;3.20;;
78322;SDS011;67583;50.616;-3.404;2023-03-21T07:26:56;18.33;;;3.42;;
78322;SDS011;67583;50.616;-3.404;2023-03-21T07:29:22;13.70;;;3.30;;
78322;SDS011;67583;50.616;-3.404;2023-03-21T07:31:47;20.67;;;2.58;;
78322;SDS011;67583;50.616;-3.404;2023-03-21T07:34:13;14.45;;;3.17;;
78322;SDS011;67583;50.616;-3.404;2023-03-21T07:36:40;16.05;;;3.13;;
78322;SDS011;67583;50.616;-3.404;2023-03-21T07:39:06;12.48;;;2.50;;
78322;SDS011;67583;50.616;-3.404;2023-03-21T07:41:31;12.90;;;2.33;;
78322;SDS011;67583;50.616;-3.404;2023-03-21T07:43:57;8.10;;;2.30;;
78322;SDS011;67583;50.616;-3.404;2023-03-21T07:46:22;14.32;;;2.03;;
78322;SDS011;67583;50.616;-3.404;2023-03-21T07:48:47;10.68;;;2.22;;
78322;SDS011;67583;50.616;-3.404;2023-03-21T07:51:13;6.68;;;1.92;;
78322;SDS011;67583;50.616;-3.404;2023-03-21T07:53:38;14.27;;;2.00;;
78322;SDS011;67583;50.616;-3.404;2023-03-21T07:56:05;13.88;;;2.42;;
78322;SDS011;67583;50.616;-3.404;2023-03-21T07:58:31;5.50;;;1.80;;
78322;SDS011;67583;50.616;-3.404;2023-03-21T08:00:58;4.25;;;1.40;;
78322;SDS011;67583;50.616;-3.404;2023-03-21T08:03:24;11.05;;;1.90;;
78322;SDS011;67583;50.616;-3.404;2023-03-21T08:05:53;9.82;;;1.65;;
78322;SDS011;67583;50.616;-3.404;2023-03-21T08:08:19;8.40;;;2.00;;
78322;SDS011;67583;50.616;-3.404;2023-03-21T08:10:44;7.07;;;1.63;;
78322;SDS011;67583;50.616;-3.404;2023-03-21T08:13:10;9.45;;;2.33;;
78322;SDS011;67583;50.616;-3.404;2023-03-21T08:15:35;9.40;;;2.17;;
78322;SDS011;67583;50.616;-3.404;2023-03-21T08:18:01;11.82;;;2.35;;
78322;SDS011;67583;50.616;-3.404;2023-03-21T08:20:27;7.18;;;2.75;;
78322;SDS011;67583;50.616;-3.404;2023-03-21T08:22:52;10.90;;;2.08;;
78322;SDS011;67583;50.616;-3.404;2023-03-21T08:25:18;9.70;;;2.78;;
78322;SDS011;67583;50.616;-3.404;2023-03-21T08:27:45;7.55;;;2.08;;
78322;SDS011;67583;50.616;-3.404;2023-03-21T08:30:13;12.23;;;2.30;;
78322;SDS011;67583;50.616;-3.404;2023-03-21T08:32:40;8.38;;;1.85;;
78322;SDS011;67583;50.616;-3.404;2023-03-21T08:35:07;6.32;;;2.03;;
78322;SDS011;67583;50.616;-3.404;2023-03-21T08:37:34;11.05;;;2.70;;
78322;SDS011;67583;50.616;-3.404;2023-03-21T08:40:01;9.55;;;2.00;;
78322;SDS011;67583;50.616;-3.404;2023-03-21T08:42:26;7.75;;;2.20;;
78322;SDS011;67583;50.616;-3.404;2023-03-21T08:44:51;8.75;;;2.03;;
78322;SDS011;67583;50.616;-3.404;2023-03-21T08:47:17;13.43;;;3.38;;
78322;SDS011;67583;50.616;-3.404;2023-03-21T08:49:42;12.27;;;2.05;;
78322;SDS011;67583;50.616;-3.404;2023-03-21T08:52:09;9.30;;;1.92;;
78322;SDS011;67583;50.616;-3.404;2023-03-21T08:54:35;6.57;;;1.98;;
78322;SDS011;67583;50.616;-3.404;2023-03-21T08:57:01;9.68;;;1.85;;
78322;SDS011;67583;50.616;-3.404;2023-03-21T08:59:26;11.75;;;2.38;;
78322;SDS011;67583;50.616;-3.404;2023-03-21T09:01:51;6.88;;;1.70;;
78322;SDS011;67583;50.616;-3.404;2023-03-21T09:04:17;4.88;;;1.30;;
78322;SDS011;67583;50.616;-3.404;2023-03-21T09:06:42;9.80;;;1.83;;
78322;SDS011;67583;50.616;-3.404;2023-03-21T09:09:09;11.23;;;2.65;;
78322;SDS011;67583;50.616;-3.404;2023-03-21T09:11:36;7.43;;;2.97;;
78322;SDS011;67583;50.616;-3.404;2023-03-21T09:14:02;6.97;;;1.42;;
78322;SDS011;67583;50.616;-3.404;2023-03-21T09:16:27;6.30;;;1.73;;
78322;SDS011;67583;50.616;-3.404;2023-03-21T09:18:53;7.15;;;1.75;;
78322;SDS011;67583;50.616;-3.404;2023-03-21T09:21:21;6.80;;;1.50;;
78322;SDS011;67583;50.616;-3.404;2023-03-21T09:23:47;9.07;;;1.33;;
78322;SDS011;67583;50.616;-3.404;2023-03-21T09:26:14;6.85;;;1.10;;
78322;SDS011;67583;50.616;-3.404;2023-03-21T09:28:40;4.10;;;1.25;;
78322;SDS011;67583;50.616;-3.404;2023-03-21T09:31:07;5.68;;;1.70;;
78322;SDS011;67583;50.616;-3.404;2023-03-21T09:33:35;2.42;;;1.25;;
78322;SDS011;67583;50.616;-3.404;2023-03-21T09:36:02;4.43;;;1.42;;
78322;SDS011;67583;50.616;-3.404;2023-03-21T09:38:33;8.45;;;1.80;;
78322;SDS011;67583;50.616;-3.404;2023-03-21T09:46:42;7.70;;;2.08;;
78322;SDS011;67583;50.616;-3.404;2023-03-21T09:49:15;6.22;;;1.55;;
78322;SDS011;67583;50.616;-3.404;2023-03-21T09:51:45;6.45;;;2.00;;
78322;SDS011;67583;50.616;-3.404;2023-03-21T09:54:24;7.72;;;1.73;;
78322;SDS011;67583;50.616;-3.404;2023-03-21T09:56:52;4.90;;;1.80;;
78322;SDS011;67583;50.616;-3.404;2023-03-21T09:59:41;3.30;;;1.50;;
78322;SDS011;67583;50.616;-3.404;2023-03-21T10:05:09;4.78;;;1.75;;
78322;SDS011;67583;50.616;-3.404;2023-03-21T10:07:43;8.38;;;2.00;;
78322;SDS011;67583;50.616;-3.404;2023-03-21T10:10:19;3.75;;;1.20;;
78322;SDS011;67583;50.616;-3.404;2023-03-21T10:12:47;5.07;;;1.40;;
78322;SDS011;67583;50.616;-3.404;2023-03-21T10:15:16;5.60;;;1.48;;
78322;SDS011;67583;50.616;-3.404;2023-03-21T10:20:23;4.35;;;1.13;;
78322;SDS011;67583;50.616;-3.404;2023-03-21T10:22:52;5.57;;;1.40;;
78322;SDS011;67583;50.616;-3.404;2023-03-21T10:25:33;5.63;;;1.50;;
78322;SDS011;67583;50.616;-3.404;2023-03-21T10:28:00;5.63;;;1.45;;
78322;SDS011;67583;50.616;-3.404;2023-03-21T10:33:16;8.85;;;1.55;;
78322;SDS011;67583;50.616;-3.404;2023-03-21T10:35:45;3.58;;;1.30;;
78322;SDS011;67583;50.616;-3.404;2023-03-21T10:38:15;4.32;;;1.10;;
78322;SDS011;67583;50.616;-3.404;2023-03-21T10:40:44;3.47;;;1.30;;
78322;SDS011;67583;50.616;-3.404;2023-03-21T10:43:18;5.95;;;1.55;;
78322;SDS011;67583;50.616;-3.404;2023-03-21T10:45:49;2.38;;;0.93;;
78322;SDS011;67583;50.616;-3.404;2023-03-21T10:48:15;4.85;;;1.58;;
78322;SDS011;67583;50.616;-3.404;2023-03-21T10:50:41;5.50;;;1.55;;
78322;SDS011;67583;50.616;-3.404;2023-03-21T10:53:12;2.03;;;1.15;;
78322;SDS011;67583;50.616;-3.404;2023-03-21T10:55:40;6.50;;;1.50;;
78322;SDS011;67583;50.616;-3.404;2023-03-21T10:58:07;9.35;;;1.98;;
78322;SDS011;67583;50.616;-3.404;2023-03-21T11:00:36;11.80;;;1.95;;
78322;SDS011;67583;50.616;-3.404;2023-03-21T11:03:03;13.23;;;2.22;;
78322;SDS011;67583;50.616;-3.404;2023-03-21T11:05:39;7.90;;;1.98;;
78322;SDS011;67583;50.616;-3.404;2023-03-21T11:08:07;8.85;;;2.55;;
78322;SDS011;67583;50.616;-3.404;2023-03-21T11:10:37;7.00;;;1.60;;
78322;SDS011;67583;50.616;-3.404;2023-03-21T11:13:16;9.07;;;1.60;;
78322;SDS011;67583;50.616;-3.404;2023-03-21T11:18:13;6.85;;;1.50;;
78322;SDS011;67583;50.616;-3.404;2023-03-21T11:20:42;6.03;;;1.55;;
78322;SDS011;67583;50.616;-3.404;2023-03-21T11:23:13;3.78;;;1.45;;
78322;SDS011;67583;50.616;-3.404;2023-03-21T11:25:40;7.47;;;1.77;;
78322;SDS011;67583;50.616;-3.404;2023-03-21T11:28:40;9.43;;;2.10;;
78322;SDS011;67583;50.616;-3.404;2023-03-21T11:31:01;6.95;;;2.03;;
78322;SDS011;67583;50.616;-3.404;2023-03-21T11:33:31;12.07;;;2.42;;
78322;SDS011;67583;50.616;-3.404;2023-03-21T11:36:24;8.32;;;2.08;;
78322;SDS011;67583;50.616;-3.404;2023-03-21T11:38:53;8.05;;;1.95;;
78322;SDS011;67583;50.616;-3.404;2023-03-21T11:41:28;7.25;;;1.65;;
78322;SDS011;67583;50.616;-3.404;2023-03-21T11:43:56;5.25;;;1.75;;
78322;SDS011;67583;50.616;-3.404;2023-03-21T11:46:23;9.85;;;2.25;;
78322;SDS011;67583;50.616;-3.404;2023-03-21T11:48:49;7.75;;;2.45;;
78322;SDS011;67583;50.616;-3.404;2023-03-21T12:22:39;7.00;;;2.30;;
78322;SDS011;67583;50.616;-3.404;2023-03-21T12:25:12;3.72;;;1.17;;
78322;SDS011;67583;50.616;-3.404;2023-03-21T12:30:43;10.07;;;2.42;;
78322;SDS011;67583;50.616;-3.404;2023-03-21T12:33:33;7.90;;;2.15;;
78322;SDS011;67583;50.616;-3.404;2023-03-21T12:41:58;8.30;;;1.73;;
78322;SDS011;67583;50.616;-3.404;2023-03-21T12:44:54;9.48;;;2.30;;
78322;SDS011;67583;50.616;-3.404;2023-03-21T12:47:23;11.80;;;2.88;;
78322;SDS011;67583;50.616;-3.404;2023-03-21T12:55:02;15.65;;;3.45;;
78322;SDS011;67583;50.616;-3.404;2023-03-21T12:57:38;9.65;;;2.95;;
78322;SDS011;67583;50.616;-3.404;2023-03-21T13:00:15;7.78;;;2.25;;
78322;SDS011;67583;50.616;-3.404;2023-03-21T13:02:56;13.98;;;3.50;;
78322;SDS011;67583;50.616;-3.404;2023-03-21T13:10:33;10.18;;;2.20;;
78322;SDS011;67583;50.616;-3.404;2023-03-21T13:23:58;7.28;;;2.20;;
78322;SDS011;67583;50.616;-3.404;2023-03-21T13:26:31;18.50;;;4.05;;
78322;SDS011;67583;50.616;-3.404;2023-03-21T13:28:58;10.65;;;3.03;;
78322;SDS011;67583;50.616;-3.404;2023-03-21T13:31:24;12.18;;;2.92;;
78322;SDS011;67583;50.616;-3.404;2023-03-21T13:33:50;18.58;;;4.65;;
78322;SDS011;67583;50.616;-3.404;2023-03-21T13:36:21;9.13;;;2.58;;
78322;SDS011;67583;50.616;-3.404;2023-03-21T13:38:49;8.65;;;2.00;;
78322;SDS011;67583;50.616;-3.404;2023-03-21T13:41:16;21.60;;;2.95;;
78322;SDS011;67583;50.616;-3.404;2023-03-21T13:53:58;11.63;;;2.40;;
78322;SDS011;67583;50.616;-3.404;2023-03-21T13:56:26;7.63;;;2.05;;
78322;SDS011;67583;50.616;-3.404;2023-03-21T13:58:53;10.27;;;2.45;;
78322;SDS011;67583;50.616;-3.404;2023-03-21T14:04:17;8.57;;;2.15;;
78322;SDS011;67583;50.616;-3.404;2023-03-21T14:12:06;13.23;;;3.10;;
78322;SDS011;67583;50.616;-3.404;2023-03-21T14:14:36;11.27;;;2.95;;
78322;SDS011;67583;50.616;-3.404;2023-03-21T14:20:13;7.20;;;1.85;;
78322;SDS011;67583;50.616;-3.404;2023-03-21T14:22:40;9.93;;;2.17;;
78322;SDS011;67583;50.616;-3.404;2023-03-21T14:25:09;11.20;;;2.40;;
78322;SDS011;67583;50.616;-3.404;2023-03-21T14:27:37;12.60;;;2.22;;
78322;SDS011;67583;50.616;-3.404;2023-03-21T14:30:09;8.55;;;2.20;;
78322;SDS011;67583;50.616;-3.404;2023-03-21T14:32:36;10.82;;;2.38;;
78322;SDS011;67583;50.616;-3.404;2023-03-21T14:35:02;14.38;;;2.35;;
78322;SDS011;67583;50.616;-3.404;2023-03-21T14:37:32;6.45;;;1.88;;
78322;SDS011;67583;50.616;-3.404;2023-03-21T14:40:02;8.27;;;1.95;;
78322;SDS011;67583;50.616;-3.404;2023-03-21T14:42:33;8.18;;;2.30;;
78322;SDS011;67583;50.616;-3.404;2023-03-21T14:45:05;6.53;;;2.00;;
78322;SDS011;67583;50.616;-3.404;2023-03-21T14:47:38;5.95;;;1.83;;
78322;SDS011;67583;50.616;-3.404;2023-03-21T14:50:04;10.20;;;1.77;;
78322;SDS011;67583;50.616;-3.404;2023-03-21T14:52:31;6.93;;;1.67;;
78322;SDS011;67583;50.616;-3.404;2023-03-21T14:54:57;7.60;;;2.25;;
78322;SDS011;67583;50.616;-3.404;2023-03-21T14:57:30;8.27;;;2.15;;
78322;SDS011;67583;50.616;-3.404;2023-03-21T15:00:00;7.63;;;2.60;;
78322;SDS011;67583;50.616;-3.404;2023-03-21T15:02:37;7.20;;;2.35;;
78322;SDS011;67583;50.616;-3.404;2023-03-21T15:05:09;8.80;;;2.75;;
78322;SDS011;67583;50.616;-3.404;2023-03-21T15:07:39;10.85;;;2.58;;
78322;SDS011;67583;50.616;-3.404;2023-03-21T15:10:06;18.08;;;2.80;;
78322;SDS011;67583;50.616;-3.404;2023-03-21T15:12:33;8.13;;;3.25;;
78322;SDS011;67583;50.616;-3.404;2023-03-21T15:14:59;6.88;;;2.30;;
78322;SDS011;67583;50.616;-3.404;2023-03-21T15:17:25;11.20;;;2.05;;
78322;SDS011;67583;50.616;-3.404;2023-03-21T15:19:52;11.07;;;3.28;;
78322;SDS011;67583;50.616;-3.404;2023-03-21T15:24:43;11.57;;;2.72;;
78322;SDS011;67583;50.616;-3.404;2023-03-21T15:27:12;13.02;;;2.42;;
78322;SDS011;67583;50.616;-3.404;2023-03-21T15:29:40;6.90;;;2.45;;
78322;SDS011;67583;50.616;-3.404;2023-03-21T15:32:11;10.63;;;2.65;;
78322;SDS011;67583;50.616;-3.404;2023-03-21T15:34:38;11.93;;;2.30;;
78322;SDS011;67583;50.616;-3.404;2023-03-21T15:37:05;11.23;;;3.00;;
78322;SDS011;67583;50.616;-3.404;2023-03-21T15:39:31;9.07;;;2.05;;
78322;SDS011;67583;50.616;-3.404;2023-03-21T15:44:44;14.32;;;2.67;;
78322;SDS011;67583;50.616;-3.404;2023-03-21T15:47:15;8.82;;;2.50;;
78322;SDS011;67583;50.616;-3.404;2023-03-21T15:49:40;8.63;;;2.13;;
78322;SDS011;67583;50.616;-3.404;2023-03-21T15:52:10;13.05;;;2.35;;
78322;SDS011;67583;50.616;-3.404;2023-03-21T15:54:45;10.82;;;2.45;;
78322;SDS011;67583;50.616;-3.404;2023-03-21T15:57:23;11.25;;;2.60;;
78322;SDS011;67583;50.616;-3.404;2023-03-21T16:00:39;17.90;;;2.75;;
78322;SDS011;67583;50.616;-3.404;2023-03-21T16:02:45;13.13;;;2.75;;
78322;SDS011;67583;50.616;-3.404;2023-03-21T16:05:29;8.10;;;2.00;;
78322;SDS011;67583;50.616;-3.404;2023-03-21T16:07:57;9.60;;;2.05;;
78322;SDS011;67583;50.616;-3.404;2023-03-21T16:10:41;10.65;;;2.50;;
78322;SDS011;67583;50.616;-3.404;2023-03-21T16:13:09;12.25;;;2.78;;
78322;SDS011;67583;50.616;-3.404;2023-03-21T16:15:36;5.75;;;1.88;;
78322;SDS011;67583;50.616;-3.404;2023-03-21T16:18:03;10.90;;;2.40;;
78322;SDS011;67583;50.616;-3.404;2023-03-21T16:20:34;14.50;;;3.33;;
78322;SDS011;67583;50.616;-3.404;2023-03-21T16:23:01;16.73;;;4.22;;
78322;SDS011;67583;50.616;-3.404;2023-03-21T16:25:27;15.15;;;3.28;;
78322;SDS011;67583;50.616;-3.404;2023-03-21T16:27:53;15.32;;;3.50;;
78322;SDS011;67583;50.616;-3.404;2023-03-21T16:30:19;14.00;;;2.47;;
78322;SDS011;67583;50.616;-3.404;2023-03-21T16:32:46;12.90;;;2.40;;
78322;SDS011;67583;50.616;-3.404;2023-03-21T16:35:12;17.73;;;2.38;;
78322;SDS011;67583;50.616;-3.404;2023-03-21T16:37:38;23.23;;;3.42;;
78322;SDS011;67583;50.616;-3.404;2023-03-21T16:40:49;11.15;;;2.45;;
78322;SDS011;67583;50.616;-3.404;2023-03-21T16:42:52;17.08;;;3.25;;
78322;SDS011;67583;50.616;-3.404;2023-03-21T16:45:17;13.98;;;2.70;;
78322;SDS011;67583;50.616;-3.404;2023-03-21T16:47:42;10.25;;;3.97;;
78322;SDS011;67583;50.616;-3.404;2023-03-21T16:50:31;16.92;;;3.55;;
78322;SDS011;67583;50.616;-3.404;2023-03-21T16:53:01;12.88;;;3.03;;